Time;durP1;ratioP1;P1;durP2;ratioP2;P2;SDS_P1;SDS_P2;PMS_P1;PMS_P2;Temp;Humidity;BMP_temperature;BMP_pressure;BME280_temperature;BME280_humidity;BME280_pressure;Samples;Min_cycle;Max_cycle;Signal;HPM_P1;HPM_P2
2022/12/20 00:01:49;;;;;;;125.50;48.83;;;;;;;1.66;68.03;100279.03;10375664;28;20050;-62
2022/12/20 00:06:51;;;;;;;114.00;47.25;;;;;;;1.53;67.78;100298.16;10383994;28;20087;-62
2022/12/20 00:11:52;;;;;;;155.93;52.72;;;;;;;1.52;68.11;100303.34;10379279;28;20072;-61
2022/12/20 00:16:54;;;;;;;80.05;39.67;;;;;;;1.56;68.02;100305.84;10386359;28;20045;-61
2022/12/20 00:21:56;;;;;;;176.10;56.47;;;;;;;1.50;67.99;100299.94;10379162;28;20074;-62
2022/12/20 00:26:57;;;;;;;152.27;52.35;;;;;;;1.55;68.12;100285.25;10384298;28;20045;-61
2022/12/20 00:31:59;;;;;;;161.23;52.30;;;;;;;1.57;68.03;100283.47;10381177;28;20735;-61
2022/12/20 00:37:01;;;;;;;275.23;62.85;;;;;;;1.53;68.05;100269.81;10382412;28;20083;-61
2022/12/20 00:42:02;;;;;;;108.97;46.55;;;;;;;1.52;67.92;100275.00;10381851;28;20869;-61
2022/12/20 00:47:04;;;;;;;174.77;58.50;;;;;;;1.54;67.81;100273.25;10385281;28;20049;-61
2022/12/20 00:52:06;;;;;;;100.25;45.45;;;;;;;1.42;67.79;100256.25;10375948;28;20139;-61
2022/12/20 00:57:08;;;;;;;108.28;45.80;;;;;;;1.38;68.13;100246.06;10386138;28;20527;-61
2022/12/20 01:02:10;;;;;;;245.27;60.72;;;;;;;1.47;68.01;100240.72;10381055;28;20255;-62
2022/12/20 01:07:12;;;;;;;108.35;46.20;;;;;;;1.50;67.94;100238.94;10385838;28;20144;-61
2022/12/20 01:12:13;;;;;;;249.00;61.30;;;;;;;1.50;68.15;100238.94;10381776;28;20049;-62
2022/12/20 01:17:15;;;;;;;116.85;48.45;;;;;;;1.52;67.86;100250.09;10382012;28;20045;-62
2022/12/20 01:22:17;;;;;;;114.63;46.35;;;;;;;1.57;67.98;100255.13;10381446;28;20413;-62
2022/12/20 01:27:18;;;;;;;93.65;41.95;;;;;;;1.55;68.07;100250.00;10384893;28;20056;-62
2022/12/20 01:32:20;;;;;;;176.93;52.88;;;;;;;1.56;68.07;100253.44;10381007;28;20349;-61
2022/12/20 01:37:22;;;;;;;121.57;46.50;;;;;;;1.51;68.05;100256.09;10383992;28;20045;-62
2022/12/20 01:42:24;;;;;;;144.18;50.42;;;;;;;1.28;68.08;100247.91;10381707;28;20138;-62
2022/12/20 01:47:30;;;;;;;126.55;47.90;;;;;;;1.15;68.25;100229.25;10363888;28;20076;-62
2022/12/20 01:52:37;;;;;;;99.88;42.58;;;;;;;1.06;68.55;100231.13;10380368;28;20429;-61
2022/12/20 01:58:11;;;;;;;145.73;51.72;;;;;;;0.90;68.77;100215.09;10383103;28;20053;-62
2022/12/20 02:03:14;;;;;;;197.23;58.03;;;;;;;0.93;68.85;100193.59;10374739;28;20060;-61
2022/12/20 02:08:19;;;;;;;167.13;54.42;;;;;;;0.96;68.67;100196.09;10384525;28;20056;-62
2022/12/20 02:13:50;;;;;;;164.48;55.50;;;;;;;0.88;69.30;100192.81;10378996;28;20056;-62
2022/12/20 02:18:57;;;;;;;180.00;55.17;;;;;;;0.85;69.00;100200.59;10381594;28;20165;-62
2022/12/20 02:24:30;;;;;;;172.30;53.65;;;;;;;0.77;69.18;100194.72;10378814;28;20056;-62
2022/12/20 02:29:36;;;;;;;181.85;53.65;;;;;;;0.77;69.37;100187.00;10379990;28;20057;-61
2022/12/20 02:34:40;;;;;;;133.82;57.58;;;;;;;0.81;69.03;100160.31;10380756;28;20485;-62
2022/12/20 02:39:45;;;;;;;67.97;38.05;;;;;;;0.81;69.20;100153.44;10380420;28;20049;-62
2022/12/20 02:45:15;;;;;;;211.15;61.63;;;;;;;0.89;69.13;100150.75;10380983;28;20315;-62
2022/12/20 02:50:22;;;;;;;158.57;54.42;;;;;;;0.95;68.78;100166.91;10376868;28;20049;-62
2022/12/20 02:55:36;;;;;;;83.95;39.45;;;;;;;1.04;68.94;100176.22;10379293;28;20045;-62
2022/12/20 03:00:44;;;;;;;351.00;58.03;;;;;;;1.05;68.86;100177.94;10378080;28;20050;-62
2022/12/20 03:05:48;;;;;;;846.50;79.38;;;;;;;0.95;68.79;100171.25;10371988;28;20049;-62
2022/12/20 03:10:51;;;;;;;571.50;71.10;;;;;;;1.05;68.86;100177.94;10388761;28;20056;-61
2022/12/20 03:15:53;;;;;;;171.25;53.78;;;;;;;1.07;68.68;100176.19;10389313;28;20176;-61
2022/12/20 03:20:54;;;;;;;96.00;45.05;;;;;;;1.15;68.75;100159.72;10390440;28;20073;-61
2022/12/20 03:25:56;;;;;;;115.18;49.13;;;;;;;1.10;68.90;100148.63;10390048;28;20060;-61
2022/12/20 03:30:58;;;;;;;108.32;45.15;;;;;;;1.20;68.90;100149.31;10387615;28;20064;-61
2022/12/20 03:35:59;;;;;;;112.32;47.38;;;;;;;1.12;68.93;100172.63;10388825;28;20049;-61
2022/12/20 03:41:01;;;;;;;150.88;53.45;;;;;;;1.20;68.84;100165.63;10392419;28;20045;-61
2022/12/20 03:46:03;;;;;;;166.73;54.03;;;;;;;1.23;68.92;100162.16;10396801;28;20057;-61
2022/12/20 03:51:05;;;;;;;114.20;42.22;;;;;;;1.21;68.90;100159.59;10397358;28;20054;-61
2022/12/20 03:56:07;;;;;;;185.35;60.55;;;;;;;1.21;68.60;100162.19;10395483;28;20049;-62
2022/12/20 04:01:17;;;;;;;221.93;60.17;;;;;;;1.15;69.09;100158.84;10395542;28;20073;-61
2022/12/20 04:06:19;;;;;;;374.30;71.70;;;;;;;1.24;68.94;100151.81;10393932;28;20667;-61
2022/12/20 04:11:21;;;;;;;107.60;46.00;;;;;;;1.33;69.03;100146.50;10390812;28;20057;-61
2022/12/20 04:16:25;;;;;;;63.95;36.00;;;;;;;1.47;68.67;100159.09;10391949;28;20064;-62
2022/12/20 04:21:29;;;;;;;93.95;43.38;;;;;;;1.55;68.74;100154.66;10391839;28;20053;-63
2022/12/20 04:26:31;;;;;;;90.93;42.88;;;;;;;1.60;68.50;100147.69;10391475;28;20060;-62
2022/12/20 04:31:33;;;;;;;89.45;40.88;;;;;;;1.68;68.70;100127.75;10389839;28;20181;-63
2022/12/20 04:36:35;;;;;;;85.82;40.13;;;;;;;1.69;68.58;100156.94;10389343;28;20099;-62
2022/12/20 04:41:36;;;;;;;89.75;41.28;;;;;;;1.73;68.69;100125.06;10387117;28;20050;-62
2022/12/20 04:46:38;;;;;;;126.50;47.65;;;;;;;1.81;68.40;100116.28;10386908;28;20057;-61
2022/12/20 04:51:40;;;;;;;162.15;53.03;;;;;;;1.82;68.10;100118.00;10387894;28;20578;-62
2022/12/20 04:56:42;;;;;;;246.45;61.42;;;;;;;1.75;68.25;100120.72;10386003;28;20176;-62
2022/12/20 05:01:43;;;;;;;85.57;40.47;;;;;;;1.75;68.27;100131.88;10386985;28;20429;-62
2022/12/20 05:06:45;;;;;;;120.55;46.25;;;;;;;1.82;68.35;100132.63;10387131;28;20053;-63
2022/12/20 05:11:47;;;;;;;212.65;53.47;;;;;;;1.82;68.13;100117.16;10387181;28;20057;-62
2022/12/20 05:16:48;;;;;;;67.25;35.28;;;;;;;1.66;68.28;100102.88;10386309;28;20072;-63
2022/12/20 05:27:10;;;;;;;101.00;44.90;;;;;;;1.66;68.86;100095.16;10385485;28;20461;-61
2022/12/20 05:32:12;;;;;;;122.80;46.58;;;;;;;1.76;68.79;100091.50;10384955;28;20049;-61
2022/12/20 05:37:13;;;;;;;81.03;38.78;;;;;;;1.79;68.88;100104.31;10386940;28;20544;-63
2022/12/20 05:42:15;;;;;;;156.75;51.00;;;;;;;1.81;68.61;100099.97;10386744;28;20064;-63
2022/12/20 05:47:17;;;;;;;563.15;65.53;;;;;;;1.65;68.19;100094.28;10382739;28;20041;-63
2022/12/20 05:52:19;;;;;;;250.38;57.83;;;;;;;1.49;68.58;100092.91;10386292;28;20077;-63
2022/12/20 05:57:20;;;;;;;110.78;42.55;;;;;;;1.59;68.29;100089.25;10383636;28;20053;-62
2022/12/20 06:02:22;;;;;;;116.85;45.08;;;;;;;1.68;68.50;100083.06;10383360;28;20053;-63
2022/12/20 06:07:24;;;;;;;121.13;45.17;;;;;;;1.71;68.19;100080.41;10386822;28;20632;-63
2022/12/20 06:12:26;;;;;;;99.20;44.45;;;;;;;1.76;68.26;100086.34;10384018;28;20056;-63
2022/12/20 06:17:28;;;;;;;165.88;49.92;;;;;;;1.70;68.27;100086.47;10385455;28;20922;-64
2022/12/20 06:22:29;;;;;;;122.78;45.17;;;;;;;1.57;68.47;100072.13;10383003;28;20056;-63
2022/12/20 06:27:31;;;;;;;97.63;43.10;;;;;;;1.67;68.32;100071.06;10384387;28;20727;-62
2022/12/20 06:32:33;;;;;;;76.32;36.83;;;;;;;1.78;68.32;100092.31;10381528;28;20053;-63
2022/12/20 06:37:35;;;;;;;228.05;51.15;;;;;;;1.80;68.09;100093.97;10382901;28;20056;-63
2022/12/20 06:42:37;;;;;;;129.18;46.45;;;;;;;1.64;68.23;100089.19;10382117;28;20480;-63
2022/12/20 06:47:38;;;;;;;76.10;37.97;;;;;;;1.62;68.34;100089.22;10382094;28;20045;-63
2022/12/20 06:52:40;;;;;;;102.00;42.42;;;;;;;1.76;68.29;100097.50;10378701;28;20045;-64
2022/12/20 06:57:42;;;;;;;133.13;48.28;;;;;;;1.77;68.15;100091.44;10376605;28;20059;-64
2022/12/20 07:02:44;;;;;;;133.45;46.00;;;;;;;1.68;68.39;100088.22;10376073;28;20045;-64
2022/12/20 07:07:46;;;;;;;106.72;43.33;;;;;;;1.76;68.27;100073.44;10381599;28;20076;-63
2022/12/20 07:12:49;;;;;;;142.13;48.90;;;;;;;1.74;68.20;100064.91;10377901;28;20057;-63
2022/12/20 07:17:50;;;;;;;61.47;34.20;;;;;;;1.71;68.34;100063.22;10390255;28;20041;-63
2022/12/20 07:22:52;;;;;;;113.80;45.78;;;;;;;1.72;68.26;100059.78;10385136;28;20051;-63
2022/12/20 07:27:55;;;;;;;125.55;44.83;;;;;;;1.77;68.22;100051.91;10391065;28;20051;-64
2022/12/20 07:32:57;;;;;;;137.00;48.35;;;;;;;1.80;67.99;100041.56;10383028;28;20060;-64
2022/12/20 07:37:59;;;;;;;65.43;33.38;;;;;;;1.66;68.16;100044.44;10391250;28;20048;-63
2022/12/20 07:43:01;;;;;;;65.80;36.40;;;;;;;1.60;68.48;100041.16;10386586;28;20379;-63
2022/12/20 07:48:06;;;;;;;78.43;37.72;;;;;;;1.73;68.58;100037.41;10381885;28;20077;-64
2022/12/20 07:53:16;;;;;;;132.90;54.15;;;;;;;1.78;68.33;100007.22;10387231;28;20317;-64
2022/12/20 07:58:18;;;;;;;93.35;46.30;;;;;;;1.74;68.38;100019.34;10386739;28;20381;-63
2022/12/20 08:03:25;;;;;;;139.93;61.92;;;;;;;1.82;68.10;100014.00;10385472;28;20046;-64
2022/12/20 08:08:27;;;;;;;79.57;41.50;;;;;;;1.89;68.24;100000.91;10387775;28;20045;-63
2022/12/20 08:13:31;;;;;;;109.88;47.25;;;;;;;1.92;68.24;100010.31;10387054;28;20060;-63
2022/12/20 08:18:33;;;;;;;78.80;41.17;;;;;;;2.03;68.22;100018.66;10384668;28;20084;-63
2022/12/20 08:23:35;;;;;;;89.70;43.60;;;;;;;2.14;68.00;100011.50;10385305;28;20059;-64
2022/12/20 08:28:37;;;;;;;85.32;41.60;;;;;;;2.32;67.86;100023.94;10377765;28;20050;-64
2022/12/20 08:33:39;;;;;;;351.63;62.03;;;;;;;2.31;67.56;100030.00;10384331;28;20171;-63
2022/12/20 08:38:41;;;;;;;123.50;40.70;;;;;;;2.09;67.76;100018.53;10388371;28;20421;-62
2022/12/20 08:43:43;;;;;;;69.45;36.38;;;;;;;2.15;67.95;100014.03;10384931;28;20049;-61
2022/12/20 08:48:45;;;;;;;74.80;37.60;;;;;;;2.35;67.53;100013.56;10388192;28;20049;-62
2022/12/20 08:53:47;;;;;;;63.30;36.08;;;;;;;2.49;67.36;100010.63;10384163;28;20056;-61
2022/12/20 08:58:49;;;;;;;269.52;55.67;;;;;;;2.59;67.28;99999.16;10386670;28;20386;-62
2022/12/20 09:03:51;;;;;;;91.82;41.90;;;;;;;2.61;67.31;99987.94;10382668;28;20576;-64
2022/12/20 09:08:54;;;;;;;60.38;34.60;;;;;;;2.70;66.97;99977.34;10384507;28;20355;-63
2022/12/20 09:13:58;;;;;;;96.97;43.08;;;;;;;2.66;66.99;99980.06;10387008;28;20053;-63
2022/12/20 09:19:01;;;;;;;89.85;41.38;;;;;;;2.72;67.05;99978.16;10381440;28;20418;-63
2022/12/20 09:24:08;;;;;;;87.90;41.10;;;;;;;2.68;66.82;99986.84;10370931;28;20045;-64
2022/12/20 09:29:10;;;;;;;127.05;50.67;;;;;;;2.58;67.50;99988.00;10370550;28;20045;-64
2022/12/20 09:34:11;;;;;;;109.75;45.47;;;;;;;2.61;67.25;99980.19;10374930;28;20045;-63
2022/12/20 09:39:13;;;;;;;97.97;41.47;;;;;;;2.47;67.35;99978.84;10385193;28;20050;-63
2022/12/20 09:44:21;;;;;;;143.57;45.65;;;;;;;2.34;67.25;99982.66;10376545;28;20107;-63
2022/12/20 09:49:28;;;;;;;84.15;39.42;;;;;;;2.37;67.45;99983.41;10378411;28;20416;-63
2022/12/20 09:54:57;;;;;;;86.95;41.88;;;;;;;2.51;67.20;99967.56;10384302;28;20353;-63
2022/12/20 09:59:59;;;;;;;68.97;34.42;;;;;;;2.57;67.19;99963.06;10379553;28;20544;-63
2022/12/20 10:05:01;;;;;;;65.18;33.15;;;;;;;2.68;67.06;99953.28;10378765;28;20037;-63
2022/12/20 10:10:45;;;;;;;85.35;37.78;;;;;;;2.60;66.81;99937.16;10380382;28;20549;-63
2022/12/20 10:15:55;;;;;;;90.40;38.90;;;;;;;2.49;67.24;99936.63;10381905;28;20056;-63
2022/12/20 10:21:06;;;;;;;76.75;37.55;;;;;;;2.56;67.43;99948.47;10377144;28;20068;-64
2022/12/20 10:26:09;;;;;;;;;;;;;;;2.46;67.71;99943.59;10384290;28;20192;-63
2022/12/20 10:31:15;;;;;;;89.30;39.85;;;;;;;2.81;67.21;99941.75;10379773;28;20356;-64
2022/12/20 10:36:26;;;;;;;64.65;33.92;;;;;;;2.88;66.92;99926.94;10382882;28;20041;-64
2022/12/20 10:41:50;;;;;;;99.03;42.88;;;;;;;2.98;66.72;99926.63;10375281;28;20405;-64
2022/12/20 10:46:55;;;;;;;83.75;38.42;;;;;;;3.00;66.61;99914.50;10379769;28;20489;-63
2022/12/20 10:52:07;;;;;;;58.95;32.65;;;;;;;3.09;66.65;99902.22;10374771;28;20057;-63
2022/12/20 10:57:30;;;;;;;70.53;36.35;;;;;;;3.15;66.57;99891.69;10374569;28;20048;-63
2022/12/20 11:02:36;;;;;;;59.35;35.30;;;;;;;3.29;66.65;99880.03;10379071;28;20049;-63
2022/12/20 11:07:53;;;;;;;80.20;39.38;;;;;;;3.38;66.67;99884.06;10377203;28;21204;-63
2022/12/20 11:13:21;;;;;;;80.70;38.92;;;;;;;3.54;66.69;99885.25;10380577;28;20244;-61
2022/12/20 11:18:35;;;;;;;87.25;40.65;;;;;;;3.43;66.01;99884.78;10381944;28;20060;-60
2022/12/20 11:23:40;;;;;;;93.00;42.35;;;;;;;3.25;66.37;99877.59;10381213;28;20509;-59
2022/12/20 11:29:17;;;;;;;66.65;37.85;;;;;;;3.27;66.97;99863.72;10382602;28;20749;-59
2022/12/20 11:34:23;;;;;;;75.95;40.38;;;;;;;3.37;66.89;99859.97;10384829;28;20435;-59
2022/12/20 11:39:30;;;;;;;70.43;40.90;;;;;;;3.52;67.34;99856.00;10382960;28;20413;-59
2022/12/20 11:44:50;;;;;;;81.60;43.40;;;;;;;3.74;66.92;99859.63;10382995;28;20169;-59
2022/12/20 11:50:32;;;;;;;68.47;37.90;;;;;;;3.88;66.46;99843.66;10375537;28;20568;-59
2022/12/20 11:55:41;;;;;;;61.38;35.55;;;;;;;3.91;66.46;99844.41;10373978;28;20057;-59
2022/12/20 12:00:54;;;;;;;62.17;35.80;;;;;;;3.99;66.52;99826.00;10375816;28;20049;-59
2022/12/20 12:06:02;;;;;;;65.57;36.78;;;;;;;4.07;66.59;99819.69;10386782;28;20500;-60
2022/12/20 12:11:20;;;;;;;60.60;37.03;;;;;;;4.24;66.30;99816.50;10383686;28;20320;-60
2022/12/20 12:16:49;;;;;;;55.35;35.05;;;;;;;4.41;66.37;99809.78;10384615;28;20413;-60
2022/12/20 12:22:00;;;;;;;49.25;32.55;;;;;;;4.62;66.78;99800.38;10386546;28;20046;-59
2022/12/20 12:27:02;;;;;;;50.72;35.33;;;;;;;4.89;66.63;99801.94;10384791;28;20096;-59
2022/12/20 12:32:14;;;;;;;57.83;36.80;;;;;;;5.03;66.46;99786.69;10387576;28;20126;-59
2022/12/20 12:37:35;;;;;;;67.82;40.65;;;;;;;5.14;66.40;99773.31;10388891;28;20056;-60
2022/12/20 12:43:18;;;;;;;78.85;45.33;;;;;;;4.97;66.67;99768.78;10388519;28;20312;-59
2022/12/20 12:48:23;;;;;;;55.47;37.08;;;;;;;4.88;66.72;99743.25;10388482;28;20497;-59
2022/12/20 12:53:48;;;;;;;64.28;38.13;;;;;;;4.76;66.86;99758.44;10387114;28;20727;-60
2022/12/20 12:59:19;;;;;;;71.43;47.42;;;;;;;4.85;67.20;99766.69;10384104;28;20053;-59
2022/12/20 13:04:25;;;;;;;53.70;35.57;;;;;;;5.01;67.10;99753.97;10376019;28;20064;-59
2022/12/20 13:09:27;;;;;;;53.13;34.55;;;;;;;5.21;66.74;99761.78;10387122;28;20560;-60
2022/12/20 13:14:29;;;;;;;64.60;37.97;;;;;;;5.32;66.39;99759.59;10384644;28;20512;-59
2022/12/20 13:19:35;;;;;;;63.50;38.58;;;;;;;5.31;66.22;99765.72;10388321;28;20052;-60
2022/12/20 13:24:58;;;;;;;61.80;38.88;;;;;;;5.13;66.10;99754.31;10386194;28;20041;-60
2022/12/20 13:30:06;;;;;;;52.90;35.78;;;;;;;5.12;66.54;99757.84;10387197;28;20559;-60
2022/12/20 13:35:23;;;;;;;53.40;34.83;;;;;;;5.21;66.96;99741.88;10384401;28;20352;-60
2022/12/20 13:40:34;;;;;;;58.08;38.17;;;;;;;5.40;67.09;99722.06;10386808;28;20063;-60
2022/12/20 13:45:38;;;;;;;54.20;36.00;;;;;;;5.45;67.00;99729.66;10386256;28;20448;-60
2022/12/20 13:50:49;;;;;;;69.18;42.22;;;;;;;5.19;67.03;99732.47;10387055;28;20540;-60
2022/12/20 13:55:51;;;;;;;;;;;;;;;4.73;67.63;99720.53;10387706;28;20444;-59
2022/12/20 14:01:02;;;;;;;86.47;48.75;;;;;;;5.07;67.99;99723.47;10381289;28;19925;-59
2022/12/20 14:06:10;;;;;;;46.90;32.88;;;;;;;5.08;67.62;99719.97;10385337;28;20409;-59
2022/12/20 14:11:16;;;;;;;66.65;42.00;;;;;;;5.07;67.65;99715.69;10384131;28;20042;-60
2022/12/20 14:16:19;;;;;;;90.50;48.10;;;;;;;5.06;67.48;99733.91;10386501;28;20041;-59
2022/12/20 14:21:20;;;;;;;73.03;46.40;;;;;;;5.02;67.44;99740.13;10377337;28;20068;-60
2022/12/20 14:26:29;;;;;;;78.03;43.08;;;;;;;4.99;67.62;99722.94;10385398;28;20244;-60
2022/12/20 14:31:31;;;;;;;71.80;43.83;;;;;;;4.76;67.17;99723.00;10386211;28;20049;-60
2022/12/20 14:36:33;;;;;;;77.85;43.17;;;;;;;4.61;67.13;99724.47;10386035;28;20045;-60
2022/12/20 14:41:38;;;;;;;74.57;40.72;;;;;;;4.43;67.47;99721.72;10385486;28;20103;-60
2022/12/20 14:46:45;;;;;;;89.63;50.53;;;;;;;4.31;67.83;99720.44;10385687;28;20055;-60
2022/12/20 14:51:50;;;;;;;53.13;34.47;;;;;;;4.31;68.08;99704.91;10384969;28;20152;-60
2022/12/20 14:56:52;;;;;;;77.03;43.05;;;;;;;4.39;68.12;99702.03;10386140;28;20064;-60
2022/12/20 15:01:54;;;;;;;53.10;35.63;;;;;;;4.48;68.04;99686.97;10384243;28;20041;-60
2022/12/20 15:06:56;;;;;;;91.30;51.50;;;;;;;4.35;68.54;99690.94;10385591;28;20208;-60
2022/12/20 15:11:58;;;;;;;70.13;42.80;;;;;;;4.35;68.52;99703.88;10385642;28;20750;-60
2022/12/20 15:17:01;;;;;;;108.90;56.13;;;;;;;4.28;68.35;99696.41;10381504;28;20417;-60
2022/12/20 15:22:03;;;;;;;63.95;39.53;;;;;;;4.30;68.47;99698.03;10385496;28;20049;-60
2022/12/20 15:27:12;;;;;;;83.43;45.92;;;;;;;4.35;68.53;99696.09;10383265;28;20405;-60
2022/12/20 15:32:24;;;;;;;137.80;62.08;;;;;;;4.38;68.53;99695.16;10379058;28;20397;-60
2022/12/20 15:37:25;;;;;;;122.40;56.63;;;;;;;4.22;67.87;99699.22;10387316;28;20045;-60
2022/12/20 15:42:27;;;;;;;70.75;41.00;;;;;;;3.98;68.27;99697.56;10390876;28;20052;-59
2022/12/20 15:47:29;;;;;;;60.55;37.65;;;;;;;4.05;68.48;99688.69;10392368;28;20063;-60
2022/12/20 15:52:31;;;;;;;40.40;28.27;;;;;;;4.08;68.10;99691.13;10388222;28;20452;-60
2022/12/20 15:57:33;;;;;;;81.95;44.58;;;;;;;4.13;68.40;99687.47;10390710;28;20049;-61
2022/12/20 16:02:35;;;;;;;60.83;33.08;;;;;;;4.12;68.11;99695.31;10388196;28;20060;-61
2022/12/20 16:07:37;;;;;;;71.90;41.40;;;;;;;4.15;68.04;99701.19;10385281;28;20133;-62
2022/12/20 16:12:38;;;;;;;70.88;40.28;;;;;;;4.18;68.18;99695.91;10385558;28;20088;-61
2022/12/20 16:17:40;;;;;;;62.33;39.25;;;;;;;4.29;68.78;99701.53;10385906;28;20200;-61
2022/12/20 16:22:42;;;;;;;64.22;38.97;;;;;;;4.33;68.34;99705.69;10390112;28;20079;-62
2022/12/20 16:27:43;;;;;;;74.13;44.75;;;;;;;4.29;68.63;99686.00;10388915;28;20521;-60
2022/12/20 16:32:45;;;;;;;123.82;57.95;;;;;;;4.33;68.68;99686.75;10384984;28;20060;-61
2022/12/20 16:37:47;;;;;;;130.45;59.42;;;;;;;4.30;68.30;99692.00;10388711;28;20136;-61
2022/12/20 16:42:49;;;;;;;94.93;54.78;;;;;;;4.24;68.18;99693.09;10384660;28;20489;-61
2022/12/20 16:47:51;;;;;;;99.43;55.50;;;;;;;4.26;68.21;99701.66;10388544;28;20057;-61
2022/12/20 16:52:53;;;;;;;68.25;46.55;;;;;;;4.20;68.56;99694.13;10387889;28;20049;-61
2022/12/20 16:57:55;;;;;;;77.57;46.80;;;;;;;4.25;68.79;99679.25;10385381;28;20049;-61
2022/12/20 17:02:57;;;;;;;81.25;50.05;;;;;;;4.31;68.73;99679.00;10387531;28;20064;-61
2022/12/20 17:07:59;;;;;;;92.20;50.70;;;;;;;4.30;68.83;99666.97;10386295;28;20037;-61
2022/12/20 17:13:01;;;;;;;110.50;54.38;;;;;;;4.32;68.57;99680.72;10383986;28;20048;-62
2022/12/20 17:18:03;;;;;;;101.55;54.45;;;;;;;4.36;68.75;99658.97;10386672;28;20512;-61
2022/12/20 17:23:04;;;;;;;73.97;43.55;;;;;;;4.46;69.08;99656.88;10385707;28;20057;-61
2022/12/20 17:28:25;;;;;;;111.80;57.90;;;;;;;4.45;68.87;99648.28;10384965;28;20053;-61
2022/12/20 17:33:26;;;;;;;146.43;66.90;;;;;;;4.48;68.69;99650.72;10385385;28;20049;-61
2022/12/20 17:38:28;;;;;;;103.80;55.97;;;;;;;4.49;68.36;99642.06;10386472;28;20077;-61
2022/12/20 17:43:30;;;;;;;92.82;52.95;;;;;;;4.50;68.51;99648.91;10384153;28;20076;-61
2022/12/20 17:48:31;;;;;;;74.40;45.35;;;;;;;4.52;68.33;99634.16;10385367;28;20057;-61
2022/12/20 17:53:39;;;;;;;55.08;37.35;;;;;;;4.52;68.39;99641.09;10385591;28;20421;-61
2022/12/20 17:58:43;;;;;;;86.45;48.50;;;;;;;4.41;67.93;99638.91;10383403;28;20524;-61
2022/12/20 18:03:47;;;;;;;90.70;49.22;;;;;;;4.33;68.09;99638.38;10382705;28;20485;-61
2022/12/20 18:09:17;;;;;;;84.20;48.17;;;;;;;4.28;68.38;99648.06;10383435;28;20076;-61
2022/12/20 18:14:19;;;;;;;63.05;39.60;;;;;;;4.42;68.35;99638.03;10386609;28;20061;-61
2022/12/20 18:19:20;;;;;;;101.63;57.80;;;;;;;4.46;68.71;99630.97;10385116;28;20049;-60
2022/12/20 18:24:22;;;;;;;79.53;49.40;;;;;;;4.45;68.67;99622.38;10384606;28;20046;-62
2022/12/20 18:29:24;;;;;;;64.40;41.40;;;;;;;4.54;68.67;99631.50;10376896;28;20049;-62
2022/12/20 18:34:25;;;;;;;80.15;51.03;;;;;;;4.54;68.48;99634.94;10381607;28;20046;-62
2022/12/20 18:39:27;;;;;;;65.15;46.45;;;;;;;4.57;68.41;99634.84;10377289;28;20131;-62
2022/12/20 18:44:34;;;;;;;80.53;53.63;;;;;;;4.64;68.58;99633.66;10382986;28;20045;-62
2022/12/20 18:49:36;;;;;;;107.07;60.63;;;;;;;4.66;68.58;99631.88;10379313;28;20136;-62
2022/12/20 18:54:38;;;;;;;102.75;59.45;;;;;;;4.75;68.32;99640.16;10383377;28;20049;-62
2022/12/20 18:59:39;;;;;;;84.68;51.33;;;;;;;4.77;68.79;99634.03;10357871;28;20058;-62
2022/12/20 19:04:42;;;;;;;296.67;91.95;;;;;;;4.83;68.94;99630.31;10381458;28;20041;-62
2022/12/20 19:09:44;;;;;;;113.22;54.85;;;;;;;4.82;68.69;99623.47;10379687;28;20042;-62
2022/12/20 19:14:45;;;;;;;110.55;54.63;;;;;;;4.82;68.85;99618.28;10380005;28;20050;-62
2022/12/20 19:19:47;;;;;;;89.45;52.78;;;;;;;4.69;68.82;99618.81;10377993;28;20321;-62
2022/12/20 19:24:50;;;;;;;315.65;90.00;;;;;;;4.47;68.76;99622.31;10378293;28;20045;-62
2022/12/20 19:29:53;;;;;;;411.13;96.20;;;;;;;4.41;69.12;99615.59;10379098;28;20528;-62
2022/12/20 19:34:54;;;;;;;64.15;41.97;;;;;;;4.52;69.39;99612.59;10382070;28;20485;-62
2022/12/20 19:39:56;;;;;;;109.68;62.92;;;;;;;4.56;69.01;99611.56;10383056;28;20481;-61
2022/12/20 19:44:58;;;;;;;162.77;75.35;;;;;;;4.52;68.86;99604.84;10374127;28;20046;-62
2022/12/20 19:50:00;;;;;;;152.00;73.65;;;;;;;4.63;68.99;99608.69;10379632;28;20041;-62
2022/12/20 19:55:01;;;;;;;249.32;101.78;;;;;;;4.68;69.04;99598.13;10377548;28;20045;-62
2022/12/20 20:00:07;;;;;;;133.00;68.53;;;;;;;4.72;69.22;99598.84;10376528;28;20053;-61
2022/12/20 20:05:08;;;;;;;134.70;70.40;;;;;;;4.66;69.16;99594.75;10380760;28;20047;-61
2022/12/20 20:10:16;;;;;;;71.22;44.97;;;;;;;4.63;69.41;99597.47;10378320;28;20049;-62
2022/12/20 20:15:18;;;;;;;121.03;65.13;;;;;;;4.62;69.34;99598.38;10379509;28;20053;-61
2022/12/20 20:20:20;;;;;;;107.53;61.97;;;;;;;4.70;69.00;99594.56;10377006;28;20076;-62
2022/12/20 20:25:22;;;;;;;78.57;50.05;;;;;;;4.72;68.94;99587.56;10389069;28;20045;-62
2022/12/20 20:30:23;;;;;;;193.57;86.90;;;;;;;4.79;69.00;99589.91;10385731;28;20661;-62
2022/12/20 20:35:25;;;;;;;153.82;74.50;;;;;;;4.63;68.84;99598.34;10386685;28;20052;-62
2022/12/20 20:40:26;;;;;;;266.42;101.15;;;;;;;4.63;69.14;99598.34;10382412;28;21363;-62
2022/12/20 20:45:29;;;;;;;101.22;56.65;;;;;;;4.66;68.91;99590.41;10387585;28;20433;-61
2022/12/20 20:50:31;;;;;;;100.13;59.88;;;;;;;4.65;69.02;99588.75;10378574;28;20838;-62
2022/12/20 20:55:33;;;;;;;144.43;72.90;;;;;;;4.67;69.30;99588.69;10386280;28;20057;-62
2022/12/20 21:00:35;;;;;;;192.30;87.72;;;;;;;4.64;69.36;99589.63;10384635;28;20053;-62
2022/12/20 21:05:37;;;;;;;60.53;42.35;;;;;;;4.60;69.57;99587.22;10383041;28;20056;-62
2022/12/20 21:11:03;;;;;;;131.80;61.38;;;;;;;4.66;69.69;99566.25;10384442;28;20049;-62
2022/12/20 21:16:14;;;;;;;92.07;56.78;;;;;;;4.75;69.63;99573.66;10385271;28;20046;-63
2022/12/20 21:21:19;;;;;;;99.57;57.10;;;;;;;4.77;69.56;99556.31;10381988;28;20390;-61
2022/12/20 21:26:24;;;;;;;107.88;60.80;;;;;;;4.81;69.61;99557.00;10384808;28;20053;-61
2022/12/20 21:31:26;;;;;;;89.82;54.25;;;;;;;4.81;69.29;99554.41;10387602;28;20335;-61
2022/12/20 21:36:28;;;;;;;157.85;70.35;;;;;;;4.60;69.34;99546.66;10384105;28;20054;-61
2022/12/20 21:41:30;;;;;;;149.75;66.00;;;;;;;4.59;69.29;99539.78;10387744;28;20049;-60
2022/12/20 21:46:32;;;;;;;82.38;49.80;;;;;;;4.65;69.59;99538.69;10385413;28;20071;-60
2022/12/20 21:51:34;;;;;;;129.00;68.30;;;;;;;4.66;69.83;99533.44;10384853;28;20045;-59
2022/12/20 21:56:35;;;;;;;352.55;89.80;;;;;;;4.67;69.73;99524.78;10385152;28;20045;-60
2022/12/20 22:01:37;;;;;;;152.80;72.30;;;;;;;4.75;69.56;99528.78;10382867;28;20052;-61
2022/12/20 22:06:40;;;;;;;114.95;63.60;;;;;;;4.79;69.39;99523.41;10385222;28;20377;-60
2022/12/20 22:11:42;;;;;;;128.23;65.88;;;;;;;4.86;69.34;99517.03;10382801;28;20048;-60
2022/12/20 22:16:44;;;;;;;181.75;85.03;;;;;;;4.93;69.20;99515.88;10383763;28;20050;-60
2022/12/20 22:21:46;;;;;;;102.57;61.00;;;;;;;4.92;69.44;99516.81;10385037;28;20057;-60
2022/12/20 22:26:54;;;;;;;106.38;63.85;;;;;;;4.97;69.46;99508.81;10381049;28;20409;-60
2022/12/20 22:31:55;;;;;;;96.65;57.42;;;;;;;5.02;69.33;99510.31;10385115;28;20053;-60
2022/12/20 22:36:57;;;;;;;81.45;53.72;;;;;;;5.07;69.21;99515.25;10382313;28;20056;-60
2022/12/20 22:41:59;;;;;;;160.52;79.43;;;;;;;5.09;69.35;99521.22;10384116;28;20416;-60
2022/12/20 22:47:00;;;;;;;76.25;50.42;;;;;;;5.14;69.72;99519.28;10381992;28;20053;-60
2022/12/20 22:52:02;;;;;;;61.28;40.15;;;;;;;5.16;69.72;99512.28;10383881;28;20049;-60
2022/12/20 22:57:10;;;;;;;274.70;87.97;;;;;;;5.18;69.64;99518.25;10383522;28;20490;-60
2022/12/20 23:02:12;;;;;;;181.00;72.57;;;;;;;5.16;69.60;99504.50;10383117;28;20061;-60
2022/12/20 23:07:14;;;;;;;126.40;66.90;;;;;;;5.16;69.50;99507.09;10383101;28;20207;-60
2022/12/20 23:17:36;;;;;;;117.95;61.78;;;;;;;5.24;69.48;99502.41;10386067;28;20555;-60
2022/12/20 23:22:38;;;;;;;63.33;45.92;;;;;;;5.21;69.39;99507.72;10381812;28;20065;-61